AF7651 / F-GKXL 7700 Squawk Report (6th of December, 2018)

Aircraft A320 Reg No. F-GKXL Age 12 years old
Model A320 Jet engines 2 First flight 08-02-06
Registered 17-03-06 Rollout 02-06 Delivered 17-03-06
Construction No. 2705 Line No. N/A Series 214
ADSHEX 392AEB Airline name Air France Owner Macquarie AirFinance
Airfield based Paris-Charles de Gaulle~Val-d'Oise~F First tracked 2011-04-02 06:18:02

Flight history for F-GKXL

Route Flight No Date Playback
Charles De Gaulle (CDG) - Václav Havel Airport Prague (PRG) AF1582 2018-12-14 18:25:00
Venezia Tessera (VCE) - Charles De Gaulle (CDG) AF1727 2018-12-14 16:35:00
Charles De Gaulle (CDG) - Venezia Tessera (VCE) AF1726 2018-12-14 13:58:00
Geneve Cointrin (GVA) - Charles De Gaulle (CDG) AF1643 2018-12-14 12:42:00
Charles De Gaulle (CDG) - Geneve Cointrin (GVA) AF1642 2018-12-14 09:05:00
Arlanda (ARN) - Charles De Gaulle (CDG) AF1063 2018-12-13 19:54:00
Charles De Gaulle (CDG) - Arlanda (ARN) AF1062 2018-12-13 17:52:00
Nantes Atlantique (NTE) - Charles De Gaulle (CDG) AF7725 2018-12-13 14:10:00
Charles De Gaulle (CDG) - Nantes Atlantique (NTE) AF7720 2018-12-13 10:56:00
Geneve Cointrin (GVA) - Charles De Gaulle (CDG) AF1243 2018-12-13 09:05:00
Charles De Gaulle (CDG) - Geneve Cointrin (GVA) AF1242 2018-12-12 20:39:00
Nantes Atlantique (NTE) - Charles De Gaulle (CDG) AF7731 2018-12-12 19:50:00
Charles De Gaulle (CDG) - Nantes Atlantique (NTE) AF7730 2018-12-12 17:47:00
Saint Exupery (LYS) - Charles De Gaulle (CDG) AF7645 2018-12-12 16:00:00
Charles De Gaulle (CDG) - Saint Exupery (LYS) AF7644 2018-12-12 13:54:00
Schiphol (AMS) - Charles De Gaulle (CDG) AF1341 2018-12-12 12:17:00
Charles De Gaulle (CDG) - Schiphol (AMS) AF1340 2018-12-12 10:00:00
Saint Exupery (LYS) - Charles De Gaulle (CDG) AF7651 2018-12-12 08:07:00
Charles De Gaulle (CDG) - Saint Exupery (LYS) AF7648 2018-12-12 05:17:00
Sale (RBA) - Charles De Gaulle (CDG) AF1459 2018-12-11 18:38:00
Time Lat Lon Altitude Heading Speed Vertical Rate
2018-12-06 06:05:24 GMT 49.007915 2.576041 0 135 11 0
2018-12-06 06:05:11 GMT 49.008476 2.575607 0 146 15 0
2018-12-06 06:05:00 GMT 49.008728 2.574639 0 84 21 0
2018-12-06 06:04:55 GMT 49.008694 2.573970 0 84 23 0
2018-12-06 06:04:41 GMT 49.008568 2.571928 0 87 23 0
2018-12-06 06:04:34 GMT 49.008522 2.570854 0 87 23 0
2018-12-06 06:04:25 GMT 49.008442 2.569287 0 84 22 0
2018-12-06 06:04:10 GMT 49.008335 2.567404 0 87 21 0
2018-12-06 06:04:04 GMT 49.008293 2.566575 0 87 21 0
2018-12-06 06:03:53 GMT 49.008202 2.565079 0 81 22 0
2018-12-06 06:03:40 GMT 49.008018 2.563160 0 81 23 0
2018-12-06 06:03:33 GMT 49.007904 2.561962 0 81 24 0
2018-12-06 06:03:23 GMT 49.007778 2.560431 0 78 26 0
2018-12-06 06:03:12 GMT 49.007607 2.558811 0 81 24 0
2018-12-06 06:02:56 GMT 49.007378 2.556364 0 84 20 0
2018-12-06 06:02:41 GMT 49.007263 2.554480 0 84 19 0
2018-12-06 06:02:24 GMT 49.006889 2.552767 0 45 17 0
2018-12-06 06:00:36 GMT 48.997997 2.560140 0 267 27 0
2018-12-06 06:00:28 GMT 48.998062 2.561487 0 264 25 0
2018-12-06 06:00:18 GMT 48.998138 2.563085 0 264 22 0
2018-12-06 06:00:12 GMT 48.998184 2.563844 0 264 21 0
2018-12-06 06:00:04 GMT 48.998245 2.564885 0 270 19 0
2018-12-06 05:59:56 GMT 48.998074 2.565748 0 317 15 0
2018-12-06 05:59:47 GMT 48.997570 2.566085 0 354 15 0
2018-12-06 05:58:59 GMT 48.994732 2.567949 0 278 20 0
2018-12-06 05:58:37 GMT 48.994007 2.572156 0 264 70 0
2018-12-06 05:58:33 GMT 48.993855 2.573005 0 286 36 0
2018-12-06 05:58:25 GMT 48.993542 2.575009 0 275 37 0
2018-12-06 05:58:14 GMT 48.993576 2.577914 0 264 42 0
2018-12-06 05:58:03 GMT 48.993774 2.581588 0 264 59 0
2018-12-06 05:57:53 GMT 48.994034 2.586523 0 264 92 0
2018-12-06 05:57:31 GMT 48.994972 2.604555 250 266 128 -576
2018-12-06 05:57:23 GMT 48.995361 2.612140 350 266 128 -704
2018-12-06 05:57:18 GMT 48.995670 2.617493 450 266 127 -640
2018-12-06 05:57:14 GMT 48.995811 2.620456 450 266 127 -576
2018-12-06 05:57:06 GMT 48.996185 2.627141 525 267 127 -640
2018-12-06 05:57:03 GMT 48.996277 2.629925 575 266 127 -704
2018-12-06 05:56:56 GMT 48.996597 2.635874 650 266 127 -640
2018-12-06 05:56:53 GMT 48.996780 2.638550 1,000 265 127 -640
2018-12-06 05:56:46 GMT 48.997066 2.645320 775 267 126 -576
2018-12-06 05:56:42 GMT 48.997208 2.648139 800 267 127 -640
2018-12-06 05:56:36 GMT 48.997513 2.653762 1,000 265 127 -640
2018-12-06 05:56:33 GMT 48.997971 2.662142 1,000 265 127 -640
2018-12-06 05:56:25 GMT 48.998062 2.663903 1,025 265 127 -640
2018-12-06 05:56:20 GMT 48.998383 2.668269 1,075 265 127 -640
2018-12-06 05:56:14 GMT 48.998657 2.673199 1,150 266 128 -640
2018-12-06 05:56:11 GMT 48.998791 2.675821 1,175 266 128 -640
2018-12-06 05:56:04 GMT 48.999115 2.682425 1,250 266 128 -640
2018-12-06 05:56:01 GMT 48.999252 2.685312 1,300 266 128 -640
2018-12-06 05:55:55 GMT 48.999535 2.690566 1,375 266 128 -704
2018-12-06 05:55:51 GMT 48.999756 2.694467 1,400 266 129 -704
2018-12-06 05:55:46 GMT 49.000122 2.701510 1,475 266 130 -704
2018-12-06 05:55:43 GMT 49.000122 2.701510 1,500 266 131 -704
2018-12-06 05:55:40 GMT 49.000214 2.703764 1,525 266 132 -768
2018-12-06 05:55:34 GMT 49.000698 2.712900 1,625 266 137 -448
2018-12-06 05:55:31 GMT 49.000698 2.712900 1,625 266 142 -576
2018-12-06 05:55:24 GMT 49.001072 2.719911 1,725 266 148 -704
2018-12-06 05:55:20 GMT 49.001259 2.723670 1,750 266 150 -832
2018-12-06 05:55:13 GMT 49.001629 2.730970 1,825 266 158 -960
2018-12-06 05:55:10 GMT 49.001816 2.734398 1,875 266 160 -960
2018-12-06 05:55:04 GMT 49.002228 2.742075 2,050 266 161 -1024
2018-12-06 05:55:00 GMT 49.002422 2.746582 2,075 266 162 -1024
2018-12-06 05:54:54 GMT 49.002823 2.754399 2,175 266 163 -896
2018-12-06 05:54:49 GMT 49.003029 2.758436 2,200 266 164 -640
2018-12-06 05:54:41 GMT 49.003586 2.768338 2,325 266 170 -896
2018-12-06 05:54:38 GMT 49.003738 2.771301 2,375 266 170 -896
2018-12-06 05:54:33 GMT 49.004059 2.777992 2,475 266 171 -896
2018-12-06 05:54:29 GMT 49.004375 2.783661 2,525 266 170 -896
2018-12-06 05:54:23 GMT 49.004700 2.790668 3,475 266 173 -832
2018-12-06 05:54:18 GMT 49.004929 2.795316 2,675 266 171 -896
2018-12-06 05:54:12 GMT 49.005341 2.802993 2,800 266 172 -960
2018-12-06 05:54:08 GMT 49.005569 2.807570 2,825 266 171 -896
2018-12-06 05:54:02 GMT 49.005959 2.815174 2,950 266 172 -960
2018-12-06 05:53:57 GMT 49.006256 2.820317 3,000 266 172 -960
2018-12-06 05:53:52 GMT 49.006611 2.827462 3,100 266 172 -1024
2018-12-06 05:53:49 GMT 49.006844 2.831798 3,225 266 172 -1024
2018-12-06 05:53:42 GMT 49.007217 2.838909 3,275 266 172 -960
2018-12-06 05:53:39 GMT 49.007450 2.842929 3,375 266 173 -832
2018-12-06 05:53:31 GMT 49.007915 2.852398 3,475 266 179 -320
2018-12-06 05:53:28 GMT 49.008041 2.855459 3,475 266 179 -320
2018-12-06 05:53:24 GMT 49.008362 2.861305 3,550 266 173 -896
2018-12-06 05:53:20 GMT 49.008614 2.866347 3,625 266 177 -832
2018-12-06 05:53:17 GMT 49.008774 2.869474 3,650 266 176 -832
2018-12-06 05:53:11 GMT 49.009171 2.877262 3,775 266 178 -768
2018-12-06 05:53:08 GMT 49.009369 2.881376 3,800 266 178 -768
2018-12-06 05:52:59 GMT 49.009918 2.891500 3,875 266 181 64
2018-12-06 05:52:56 GMT 49.010101 2.895602 3,875 266 181 0
2018-12-06 05:52:50 GMT 49.010468 2.903560 3,875 267 186 0
2018-12-06 05:52:47 GMT 49.010708 2.907908 3,875 266 188 -64
2018-12-06 05:52:40 GMT 49.011108 2.916800 3,875 266 190 0
2018-12-06 05:52:36 GMT 49.011337 2.921941 3,875 266 190 0
2018-12-06 05:52:29 GMT 49.011826 2.931976 3,875 266 192 0
2018-12-06 05:52:26 GMT 49.011978 2.935392 3,875 266 192 0
2018-12-06 05:52:19 GMT 49.012428 2.944986 3,900 267 196 0
2018-12-06 05:52:16 GMT 49.012615 2.949395 3,900 267 197 0
2018-12-06 05:52:09 GMT 49.012897 2.958864 3,900 269 203 0
2018-12-06 05:52:05 GMT 49.013081 2.965152 3,900 269 205 0
2018-12-06 05:52:00 GMT 49.013222 2.972380 3,900 269 211 0
2018-12-06 05:51:55 GMT 49.013260 2.978985 3,900 270 214 0
2018-12-06 05:51:50 GMT 49.013268 2.987342 3,900 273 221 0
2018-12-06 05:51:45 GMT 49.013081 2.994497 3,900 275 223 0
2018-12-06 05:51:39 GMT 49.012436 3.003775 3,875 281 230 0
2018-12-06 05:51:35 GMT 49.011475 3.010817 3,875 313 250 0
2018-12-06 05:51:29 GMT 49.009357 3.019795 3,875 300 244 0
2018-12-06 05:51:24 GMT 49.006393 3.026874 3,875 310 249 -128
2018-12-06 05:51:19 GMT 49.002411 3.033846 3,875 313 251 -128
2018-12-06 05:51:14 GMT 48.998604 3.040177 3,875 313 250 -128
2018-12-06 05:51:07 GMT 48.993439 3.048917 3,900 313 248 -256
2018-12-06 05:51:03 GMT 48.990410 3.053982 3,925 313 246 -256
2018-12-06 05:50:59 GMT 48.986267 3.060849 3,950 313 245 -640
2018-12-06 05:50:53 GMT 48.982403 3.067282 4,025 313 246 -1152
2018-12-06 05:50:48 GMT 48.978516 3.073707 4,100 313 247 -1472
2018-12-06 05:50:45 GMT 48.975281 3.078991 4,200 313 247 -1472
2018-12-06 05:50:42 GMT 48.974304 3.080609 4,250 313 247 -1472
2018-12-06 05:50:38 GMT 48.970627 3.086652 4,350 313 248 -1344
2018-12-06 05:50:32 GMT 48.966293 3.093989 4,500 312 248 -1408
2018-12-06 05:50:28 GMT 48.962860 3.099764 4,600 312 248 -1408
2018-12-06 05:50:22 GMT 48.958603 3.107089 4,750 312 249 -1408
2018-12-06 05:50:17 GMT 48.954845 3.113540 4,875 312 250 -1408
2018-12-06 05:50:14 GMT 48.952194 3.118145 4,950 312 250 -1472
2018-12-06 05:50:11 GMT 48.950317 3.121385 5,000 312 251 -1472
2018-12-06 05:50:07 GMT 48.946793 3.127441 5,175 312 259 -1472
2018-12-06 05:50:03 GMT 48.944183 3.131878 5,250 312 252 -1408
2018-12-06 05:50:00 GMT 48.941437 3.136597 5,300 312 252 -1472
2018-12-06 05:49:57 GMT 48.938972 3.140789 5,375 312 253 -1472
2018-12-06 05:49:53 GMT 48.936218 3.145470 5,475 312 254 -1472
2018-12-06 05:49:50 GMT 48.934132 3.149029 5,525 312 254 -1408
2018-12-06 05:49:47 GMT 48.931229 3.153992 5,600 312 254 -1408
2018-12-06 05:49:43 GMT 48.928265 3.159003 5,700 312 255 -1408
2018-12-06 05:49:40 GMT 48.925751 3.163267 5,775 312 255 -1408
2018-12-06 05:49:36 GMT 48.922577 3.168711 5,875 312 256 -1408
2018-12-06 05:49:30 GMT 48.917816 3.176809 6,025 312 257 -1408
2018-12-06 05:49:26 GMT 48.914906 3.181771 6,100 312 258 -1472
2018-12-06 05:49:21 GMT 48.911224 3.187987 6,200 312 258 -1408
2018-12-06 05:49:16 GMT 48.906803 3.195648 6,450 312 260 -1472
2018-12-06 05:49:12 GMT 48.903915 3.200491 6,450 312 260 -1408
2018-12-06 05:49:09 GMT 48.901108 3.205332 6,525 312 260 -1408
2018-12-06 05:49:05 GMT 48.898544 3.209698 6,600 312 261 -1408
2018-12-06 05:49:01 GMT 48.895073 3.215669 6,700 312 261 -1216
2018-12-06 05:48:58 GMT 48.892651 3.219789 6,775 312 261 -1216
2018-12-06 05:48:55 GMT 48.890030 3.224346 6,825 312 262 -1216
2018-12-06 05:48:51 GMT 48.886688 3.230121 6,925 312 262 -1152
2018-12-06 05:48:48 GMT 48.884766 3.233502 6,975 311 263 -1152
2018-12-06 05:48:45 GMT 48.881992 3.238365 7,025 311 263 -1152
2018-12-06 05:48:42 GMT 48.879150 3.243352 7,100 311 263 -1088
2018-12-06 05:48:38 GMT 48.876663 3.247657 7,175 311 263 -1152
2018-12-06 05:48:34 GMT 48.873367 3.253573 7,725 310 274 -1152
2018-12-06 05:48:31 GMT 48.871052 3.257663 7,300 311 263 -1152
2018-12-06 05:48:28 GMT 48.868469 3.262306 7,375 311 263 -1152
2018-12-06 05:48:24 GMT 48.865700 3.267204 7,425 311 263 -1152
2018-12-06 05:48:20 GMT 48.862427 3.273010 7,525 311 264 -1152
2018-12-06 05:48:16 GMT 48.859692 3.277973 7,575 311 264 -1152
2018-12-06 05:48:11 GMT 48.854828 3.286673 7,700 311 266 -1152
2018-12-06 05:48:04 GMT 48.849358 3.296549 7,825 311 267 -1152
2018-12-06 05:48:00 GMT 48.846542 3.301532 7,900 311 268 -1152
2018-12-06 05:47:56 GMT 48.843521 3.306955 7,975 311 268 -1152
2018-12-06 05:47:53 GMT 48.840885 3.311655 8,125 311 269 -1152
2018-12-06 05:47:50 GMT 48.838326 3.316281 8,125 311 269 -1088
2018-12-06 05:47:46 GMT 48.835438 3.321485 8,175 310 268 -1088
2018-12-06 05:47:43 GMT 48.832600 3.326689 8,250 310 268 -1088
2018-12-06 05:47:39 GMT 48.830109 3.331181 8,300 310 268 -1088
2018-12-06 05:47:36 GMT 48.827133 3.336604 8,375 310 269 -1152
2018-12-06 05:47:30 GMT 48.822590 3.344903 8,475 310 269 -1152
2018-12-06 05:47:23 GMT 48.816238 3.356535 8,725 310 272 -1152
2018-12-06 05:47:20 GMT 48.814304 3.360154 8,700 310 272 -1152
2018-12-06 05:47:14 GMT 48.809509 3.369044 8,800 310 274 -1088
2018-12-06 05:47:10 GMT 48.805969 3.375694 8,875 310 275 -896
2018-12-06 05:47:04 GMT 48.801544 3.383789 8,950 310 274 -512
2018-12-06 05:47:00 GMT 48.798336 3.389571 8,975 311 273 0
2018-12-06 05:46:57 GMT 48.796692 3.392592 8,975 311 273 0
2018-12-06 05:46:52 GMT 48.791565 3.401184 9,000 317 275 0
2018-12-06 05:46:49 GMT 48.788864 3.405269 9,000 318 275 -64
2018-12-06 05:46:43 GMT 48.783783 3.411677 9,000 326 274 -64
2018-12-06 05:46:39 GMT 48.778473 3.416748 9,000 334 273 -192
2018-12-06 05:46:33 GMT 48.771103 3.422386 9,025 334 275 -448
2018-12-06 05:46:29 GMT 48.767578 3.425058 9,075 334 275 -768
2018-12-06 05:46:26 GMT 48.764027 3.427734 9,075 334 275 -768
2018-12-06 05:46:21 GMT 48.758118 3.432216 9,175 334 276 -896
2018-12-06 05:46:16 GMT 48.753433 3.435763 9,250 334 277 -896
2018-12-06 05:46:11 GMT 48.746899 3.440672 9,375 334 277 -896
2018-12-06 05:46:08 GMT 48.742630 3.443862 9,375 334 277 -896
2018-12-06 05:46:01 GMT 48.734932 3.449635 9,500 334 277 -960
2018-12-06 05:45:58 GMT 48.731369 3.452313 9,525 334 277 -960
2018-12-06 05:45:50 GMT 48.722691 3.458814 9,825 334 277 0
2018-12-06 05:45:47 GMT 48.719879 3.460905 9,700 334 278 -1024
2018-12-06 05:45:42 GMT 48.714294 3.465060 9,800 334 278 -960
2018-12-06 05:45:39 GMT 48.709145 3.468933 9,825 334 278 -960
2018-12-06 05:45:36 GMT 48.707932 3.469800 9,875 334 278 -768
2018-12-06 05:45:31 GMT 48.700699 3.475201 9,975 334 278 -256
2018-12-06 05:45:27 GMT 48.696156 3.478618 9,975 334 278 0
2018-12-06 05:45:19 GMT 48.687031 3.485485 10,000 334 277 0
2018-12-06 05:45:15 GMT 48.682022 3.489216 9,975 334 277 0
2018-12-06 05:45:12 GMT 48.679211 3.491339 9,975 334 277 0
2018-12-06 05:45:07 GMT 48.673435 3.495604 9,975 334 276 0
2018-12-06 05:45:04 GMT 48.669846 3.498300 9,975 334 277 0
2018-12-06 05:45:00 GMT 48.665268 3.501681 9,975 334 277 0
2018-12-06 05:44:56 GMT 48.660355 3.505361 9,975 334 277 0
2018-12-06 05:44:49 GMT 48.651260 3.512174 10,000 334 276 0
2018-12-06 05:44:46 GMT 48.648346 3.514324 10,000 334 276 0
2018-12-06 05:44:42 GMT 48.643364 3.518082 10,000 334 276 0
2018-12-06 05:44:37 GMT 48.638802 3.521552 10,000 334 275 0
2018-12-06 05:44:34 GMT 48.636288 3.523431 10,000 334 275 0
2018-12-06 05:44:30 GMT 48.630562 3.527768 10,000 334 275 0
2018-12-06 05:44:27 GMT 48.627396 3.530153 10,000 334 275 0
2018-12-06 05:44:18 GMT 48.616924 3.538104 10,000 334 276 0
2018-12-06 05:44:15 GMT 48.613712 3.540489 9,975 334 277 0
2018-12-06 05:44:11 GMT 48.602097 3.549218 9,975 334 278 0
2018-12-06 05:44:05 GMT 48.602097 3.549218 9,975 334 278 0
2018-12-06 05:43:57 GMT 48.592712 3.556331 10,000 334 278 0
2018-12-06 05:43:54 GMT 48.589874 3.558444 10,000 334 278 0
2018-12-06 05:43:50 GMT 48.585640 3.561666 10,000 334 278 0
2018-12-06 05:43:47 GMT 48.581776 3.564558 9,975 334 278 0
2018-12-06 05:43:43 GMT 48.578384 3.567106 9,975 334 278 0
2018-12-06 05:43:40 GMT 48.573349 3.570838 9,975 334 279 0
2018-12-06 05:43:37 GMT 48.570000 3.573376 9,975 334 279 0
2018-12-06 05:43:34 GMT 48.566666 3.575839 9,975 334 279 0
2018-12-06 05:43:24 GMT 48.554543 3.584940 9,975 334 277 0
2018-12-06 05:43:20 GMT 48.550400 3.587976 9,975 334 278 0
2018-12-06 05:43:16 GMT 48.546341 3.590980 9,975 334 277 0
2018-12-06 05:43:13 GMT 48.541599 3.594553 10,000 334 278 0
2018-12-06 05:43:08 GMT 48.536453 3.598375 10,000 334 276 0
2018-12-06 05:43:05 GMT 48.530685 3.602741 10,000 334 276 0
2018-12-06 05:42:53 GMT 48.519058 3.611403 10,000 334 276 0
2018-12-06 05:42:45 GMT 48.510689 3.617610 9,975 334 276 0
2018-12-06 05:42:42 GMT 48.507111 3.620277 9,975 334 276 0
2018-12-06 05:42:33 GMT 48.495979 3.628596 10,000 334 277 0
2018-12-06 05:42:29 GMT 48.491837 3.631704 10,000 334 277 0
2018-12-06 05:42:25 GMT 48.487061 3.635207 10,000 334 277 0
2018-12-06 05:42:19 GMT 48.480194 3.640348 10,000 334 277 0
2018-12-06 05:42:15 GMT 48.475449 3.643847 9,975 334 277 0
2018-12-06 05:42:12 GMT 48.472706 3.645871 9,975 334 276 0
2018-12-06 05:42:05 GMT 48.464230 3.652159 9,975 334 275 0
2018-12-06 05:42:02 GMT 48.460785 3.654761 9,975 334 276 0
2018-12-06 05:41:55 GMT 48.452595 3.660832 9,975 334 275 0
2018-12-06 05:41:52 GMT 48.449383 3.663218 9,975 334 275 0
2018-12-06 05:41:45 GMT 48.441238 3.669293 9,975 334 275 0
2018-12-06 05:41:42 GMT 48.437466 3.672036 9,975 334 276 0
2018-12-06 05:41:37 GMT 48.432541 3.675701 9,975 334 276 0
2018-12-06 05:41:33 GMT 48.427826 3.679191 10,000 334 276 0
2018-12-06 05:41:30 GMT 48.425594 3.680926 10,000 334 275 0
2018-12-06 05:41:27 GMT 48.420753 3.684468 10,000 334 274 0
2018-12-06 05:41:23 GMT 48.416889 3.687359 10,000 334 274 0
2018-12-06 05:41:20 GMT 48.414143 3.689382 10,000 334 274 0
2018-12-06 05:41:17 GMT 48.409698 3.692674 10,000 334 274 64
2018-12-06 05:41:11 GMT 48.402550 3.697984 9,975 334 273 0
2018-12-06 05:41:07 GMT 48.398499 3.700947 9,975 334 273 0
2018-12-06 05:41:01 GMT 48.390820 3.706657 9,975 334 273 0
2018-12-06 05:40:55 GMT 48.384163 3.711500 10,000 334 274 0
2018-12-06 05:40:51 GMT 48.379578 3.714928 10,000 334 274 0
2018-12-06 05:40:42 GMT 48.370468 3.721689 10,000 334 273 0
2018-12-06 05:40:39 GMT 48.367683 3.723715 10,000 334 272 0
2018-12-06 05:40:35 GMT 48.362091 3.727886 10,000 334 272 0
2018-12-06 05:40:32 GMT 48.358932 3.730211 10,000 334 272 0
2018-12-06 05:40:29 GMT 48.356369 3.732099 10,000 334 272 0
2018-12-06 05:40:26 GMT 48.351471 3.735704 9,975 334 272 0
2018-12-06 05:40:20 GMT 48.344360 3.740989 9,975 334 272 0
2018-12-06 05:40:12 GMT 48.336182 3.747113 10,000 334 271 0
2018-12-06 05:40:09 GMT 48.332676 3.749663 9,975 334 271 0
2018-12-06 05:40:00 GMT 48.321762 3.757747 9,975 334 271 0
2018-12-06 05:39:52 GMT 48.313431 3.763874 9,975 334 271 0
2018-12-06 05:39:48 GMT 48.310188 3.766287 9,975 334 271 0
2018-12-06 05:39:41 GMT 48.300842 3.773240 10,000 334 271 0
2018-12-06 05:39:31 GMT 48.290359 3.780959 9,975 334 271 0
2018-12-06 05:39:28 GMT 48.286167 3.784067 9,975 334 271 0
2018-12-06 05:39:22 GMT 48.279282 3.789156 10,000 334 270 0
2018-12-06 05:39:19 GMT 48.275787 3.791801 9,975 334 270 0
2018-12-06 05:39:09 GMT 48.264542 3.800143 10,000 334 270 0
2018-12-06 05:39:01 GMT 48.252502 3.809087 10,000 334 268 0
2018-12-06 05:38:57 GMT 48.252502 3.809087 10,000 335 269 0
2018-12-06 05:38:50 GMT 48.244270 3.815075 10,000 335 269 0
2018-12-06 05:38:47 GMT 48.241852 3.816809 10,000 335 269 0
2018-12-06 05:38:41 GMT 48.234146 3.822468 10,000 335 269 0
2018-12-06 05:38:38 GMT 48.229980 3.825483 10,000 335 269 0
2018-12-06 05:38:28 GMT 48.219177 3.833454 10,000 334 268 0
2018-12-06 05:38:20 GMT 48.209965 3.840155 10,000 334 268 0
2018-12-06 05:38:16 GMT 48.205353 3.843525 10,000 334 268 0
2018-12-06 05:38:06 GMT 48.195625 3.850563 10,000 335 269 0
2018-12-06 05:37:56 GMT 48.184845 3.858525 9,975 334 269 0
2018-12-06 05:37:47 GMT 48.173584 3.866765 9,975 334 270 0
2018-12-06 05:37:37 GMT 48.162094 3.875146 9,975 334 270 0
2018-12-06 05:37:25 GMT 48.148178 3.885315 10,000 334 270 0
2018-12-06 05:37:15 GMT 48.138878 3.892118 10,000 334 270 0
2018-12-06 05:37:06 GMT 48.127193 3.900710 10,000 334 271 0
2018-12-06 05:36:56 GMT 48.115883 3.909020 10,000 334 272 0
2018-12-06 05:36:44 GMT 48.102940 3.918457 10,000 334 273 64
2018-12-06 05:36:34 GMT 48.091690 3.926651 10,000 334 273 64
2018-12-06 05:36:25 GMT 48.081291 3.934232 9,975 334 273 0
2018-12-06 05:36:15 GMT 48.068817 3.943317 9,975 334 272 0
2018-12-06 05:36:12 GMT 48.066536 3.944937 9,975 334 272 0
2018-12-06 05:36:05 GMT 48.057816 3.951370 9,975 334 272 0
2018-12-06 05:35:55 GMT 48.046738 3.959473 10,000 334 271 0
2018-12-06 05:35:52 GMT 48.043911 3.961557 10,000 334 271 0
2018-12-06 05:35:45 GMT 48.035114 3.968036 10,000 334 270 0
2018-12-06 05:35:42 GMT 48.032822 3.969704 10,000 334 270 0
2018-12-06 05:35:32 GMT 48.021381 3.978037 10,000 335 271 0
2018-12-06 05:35:24 GMT 48.012211 3.984727 10,000 335 271 0
2018-12-06 05:35:21 GMT 48.008926 3.987144 10,000 335 271 0
2018-12-06 05:35:13 GMT 47.999733 3.993812 10,000 334 271 0
2018-12-06 05:35:10 GMT 47.996292 3.996346 10,000 334 272 -64
2018-12-06 05:35:01 GMT 47.986187 4.003671 10,000 335 274 0
2018-12-06 05:34:53 GMT 47.976364 4.010855 9,975 334 275 0
2018-12-06 05:34:50 GMT 47.974136 4.012413 9,975 334 276 0
2018-12-06 05:34:41 GMT 47.962875 4.020653 9,975 334 278 0
2018-12-06 05:34:33 GMT 47.954018 4.027053 9,975 334 277 0
2018-12-06 05:34:30 GMT 47.950699 4.029510 9,975 334 277 0
2018-12-06 05:34:23 GMT 47.941727 4.036034 9,975 334 275 0
2018-12-06 05:34:19 GMT 47.938377 4.038462 9,975 334 275 0
2018-12-06 05:34:13 GMT 47.930370 4.044236 9,975 335 274 0
2018-12-06 05:34:09 GMT 47.927032 4.046608 9,975 335 274 0
2018-12-06 05:34:02 GMT 47.918335 4.052925 9,975 334 273 0
2018-12-06 05:33:58 GMT 47.913849 4.056221 9,975 334 272 0
2018-12-06 05:33:51 GMT 47.907028 4.061165 9,975 334 271 0
2018-12-06 05:33:48 GMT 47.902672 4.064378 9,975 334 271 0
2018-12-06 05:33:42 GMT 47.895813 4.069405 10,000 334 269 0
2018-12-06 05:33:38 GMT 47.891407 4.072618 10,000 334 269 0
2018-12-06 05:33:32 GMT 47.884472 4.077688 10,000 334 269 0
2018-12-06 05:33:28 GMT 47.879883 4.081009 10,000 335 269 0
2018-12-06 05:33:22 GMT 47.872879 4.086139 10,000 335 269 0
2018-12-06 05:33:18 GMT 47.869400 4.088631 10,000 335 269 0
2018-12-06 05:33:07 GMT 47.856724 4.097760 9,975 335 270 0
2018-12-06 05:33:00 GMT 47.849930 4.102689 9,975 335 271 0
2018-12-06 05:32:57 GMT 47.845825 4.105659 9,975 335 271 0
2018-12-06 05:32:51 GMT 47.838135 4.111221 9,975 335 271 -64
2018-12-06 05:32:47 GMT 47.833878 4.114311 9,975 335 271 0
2018-12-06 05:32:41 GMT 47.826977 4.119310 9,975 335 271 0
2018-12-06 05:32:36 GMT 47.822460 4.122549 9,975 334 270 0
2018-12-06 05:32:31 GMT 47.815613 4.127495 9,975 334 269 0
2018-12-06 05:32:26 GMT 47.810852 4.130997 9,975 335 269 0
2018-12-06 05:32:19 GMT 47.803802 4.136078 10,000 335 269 0
2018-12-06 05:32:16 GMT 47.799774 4.138962 10,000 335 269 0
2018-12-06 05:32:09 GMT 47.792530 4.144240 10,000 334 268 0
2018-12-06 05:32:06 GMT 47.788525 4.147128 10,000 334 268 0
2018-12-06 05:32:00 GMT 47.781326 4.152351 10,000 334 268 0
2018-12-06 05:31:55 GMT 47.776329 4.156001 10,000 334 267 0
2018-12-06 05:31:50 GMT 47.769627 4.160861 10,000 334 268 0
2018-12-06 05:31:45 GMT 47.765305 4.164024 9,975 334 268 0
2018-12-06 05:31:40 GMT 47.758392 4.169106 9,975 334 270 0
2018-12-06 05:31:32 GMT 47.750473 4.174873 10,000 334 271 0
2018-12-06 05:31:29 GMT 47.747131 4.177345 10,000 334 271 0
2018-12-06 05:31:22 GMT 47.739597 4.182833 9,975 335 271 0
2018-12-06 05:31:18 GMT 47.735085 4.186143 9,975 335 271 0
2018-12-06 05:31:15 GMT 47.730801 4.189171 9,975 335 271 0
2018-12-06 05:31:09 GMT 47.724190 4.193890 9,975 335 271 -64
2018-12-06 05:31:04 GMT 47.718704 4.197739 10,000 335 271 0
2018-12-06 05:30:59 GMT 47.712181 4.202271 10,000 335 271 0
2018-12-06 05:30:53 GMT 47.706501 4.206214 10,000 335 270 0
2018-12-06 05:30:49 GMT 47.700806 4.210236 9,975 335 270 0
2018-12-06 05:30:43 GMT 47.695358 4.214081 9,975 335 269 64
2018-12-06 05:30:39 GMT 47.689461 4.218327 9,975 335 269 0
2018-12-06 05:30:33 GMT 47.683365 4.222623 9,975 335 270 64
2018-12-06 05:30:27 GMT 47.677963 4.226497 9,975 335 268 -128
2018-12-06 05:30:23 GMT 47.672241 4.230492 10,000 337 269 -128
2018-12-06 05:30:18 GMT 47.666473 4.234131 10,000 338 270 0
2018-12-06 05:30:13 GMT 47.660877 4.237483 10,000 340 268 0
2018-12-06 05:30:08 GMT 47.654594 4.241004 9,975 340 268 -128
2018-12-06 05:30:02 GMT 47.648163 4.244637 10,000 340 268 -64
2018-12-06 05:29:58 GMT 47.643082 4.247520 9,975 340 268 0
2018-12-06 05:29:51 GMT 47.635742 4.251639 9,975 339 269 -64
2018-12-06 05:29:48 GMT 47.631226 4.254250 9,975 340 269 0
2018-12-06 05:29:42 GMT 47.624496 4.258026 10,000 340 268 -64
2018-12-06 05:29:37 GMT 47.619495 4.260864 10,000 339 267 -128
2018-12-06 05:29:26 GMT 47.607056 4.267914 10,000 339 267 0
2018-12-06 05:29:17 GMT 47.595520 4.274437 9,975 340 268 0
2018-12-06 05:29:07 GMT 47.584068 4.280935 9,975 339 267 0
2018-12-06 05:28:57 GMT 47.571899 4.287827 10,000 340 267 0
2018-12-06 05:28:45 GMT 47.559723 4.294668 10,000 340 267 0
2018-12-06 05:28:35 GMT 47.547867 4.301353 10,000 340 266 0
2018-12-06 05:28:26 GMT 47.536724 4.307627 10,000 340 267 0
2018-12-06 05:28:15 GMT 47.523972 4.314743 10,000 340 267 0
2018-12-06 05:28:06 GMT 47.513214 4.320796 9,975 340 268 0
2018-12-06 05:27:54 GMT 47.500488 4.327927 9,975 340 269 0
2018-12-06 05:27:44 GMT 47.489594 4.334106 10,000 340 268 0
2018-12-06 05:27:35 GMT 47.477325 4.341042 10,000 339 267 0
2018-12-06 05:27:25 GMT 47.465874 4.347487 10,000 340 267 0
2018-12-06 05:27:15 GMT 47.453861 4.354248 10,000 339 267 0
2018-12-06 05:27:05 GMT 47.442398 4.360680 10,000 340 268 0
2018-12-06 05:26:53 GMT 47.430164 4.367558 10,000 340 268 0
2018-12-06 05:26:42 GMT 47.417267 4.374756 9,975 340 270 0
2018-12-06 05:26:33 GMT 47.405960 4.381080 10,000 340 269 0
2018-12-06 05:26:24 GMT 47.394882 4.387321 10,000 340 269 0
2018-12-06 05:26:13 GMT 47.382404 4.394250 9,975 340 269 64
2018-12-06 05:26:02 GMT 47.370850 4.400711 9,975 340 269 0
2018-12-06 05:25:52 GMT 47.359222 4.407234 9,975 339 267 0
2018-12-06 05:25:43 GMT 47.347000 4.414101 9,975 340 265 -64
2018-12-06 05:25:37 GMT 47.341160 4.417419 10,000 340 265 -192
2018-12-06 05:25:32 GMT 47.335201 4.420729 10,000 340 265 -192
2018-12-06 05:25:29 GMT 47.331757 4.422701 10,025 340 266 -192
2018-12-06 05:25:22 GMT 47.324249 4.426872 10,075 340 268 -512
2018-12-06 05:25:19 GMT 47.320084 4.429207 10,075 340 270 -960
2018-12-06 05:25:12 GMT 47.312248 4.433617 10,175 340 273 -960
2018-12-06 05:25:01 GMT 47.299774 4.440519 10,350 340 279 -960
2018-12-06 05:24:51 GMT 47.287994 4.447060 10,500 340 284 -832
2018-12-06 05:24:48 GMT 47.282967 4.449885 10,575 340 285 -832
2018-12-06 05:24:40 GMT 47.273098 4.455308 10,675 340 287 -1024
2018-12-06 05:24:31 GMT 47.261948 4.461479 10,850 340 291 -1088
2018-12-06 05:24:25 GMT 47.254074 4.465805 10,950 340 294 -1024
2018-12-06 05:24:21 GMT 47.249359 4.468478 11,025 340 295 -896
2018-12-06 05:24:14 GMT 47.240700 4.473267 11,125 340 296 -960
2018-12-06 05:24:11 GMT 47.236557 4.475591 11,200 340 297 -1024
2018-12-06 05:24:05 GMT 47.229107 4.479746 11,275 340 297 -960
2018-12-06 05:24:01 GMT 47.223705 4.482774 11,350 340 298 -1024
2018-12-06 05:23:55 GMT 47.216125 4.486954 11,475 340 298 -960
2018-12-06 05:23:50 GMT 47.209743 4.490521 11,550 340 298 -960
2018-12-06 05:23:44 GMT 47.202118 4.494781 11,650 340 298 -896
2018-12-06 05:23:41 GMT 47.196762 4.497734 11,700 340 298 -832
2018-12-06 05:23:34 GMT 47.189117 4.501930 11,800 340 298 -832
2018-12-06 05:23:31 GMT 47.183952 4.504747 11,850 340 298 -832
2018-12-06 05:23:21 GMT 47.171059 4.511860 12,000 340 298 -960
2018-12-06 05:23:11 GMT 47.158768 4.518608 12,200 340 300 -960
2018-12-06 05:23:02 GMT 47.147827 4.524719 12,300 340 301 -960
2018-12-06 05:22:59 GMT 47.144009 4.526790 12,350 340 302 -960
2018-12-06 05:22:50 GMT 47.130928 4.534114 12,500 340 304 -960
2018-12-06 05:22:40 GMT 47.117615 4.541473 12,675 340 307 -960
2018-12-06 05:22:30 GMT 47.104210 4.548903 12,825 340 307 -960
2018-12-06 05:22:19 GMT 47.091125 4.556157 13,000 340 308 -960
2018-12-06 05:22:11 GMT 47.079674 4.562495 13,125 340 308 -1024
2018-12-06 05:22:08 GMT 47.077057 4.563858 13,150 340 308 -1024
2018-12-06 05:21:58 GMT 47.062775 4.571791 13,350 340 309 -960
2018-12-06 05:21:48 GMT 47.049271 4.579239 13,500 340 310 -1024
2018-12-06 05:21:38 GMT 47.034332 4.587496 13,675 340 311 -1024
2018-12-06 05:21:27 GMT 47.020706 4.595100 13,850 340 311 -896
2018-12-06 05:21:17 GMT 47.007378 4.602426 14,025 340 310 -896
2018-12-06 05:21:08 GMT 46.993835 4.609932 14,175 340 312 -1024
2018-12-06 05:20:58 GMT 46.981705 4.616592 14,300 340 312 -1024
2018-12-06 05:20:47 GMT 46.967148 4.624626 14,575 340 312 -960
2018-12-06 05:20:44 GMT 46.962643 4.627075 14,575 340 312 -960
2018-12-06 05:20:38 GMT 46.952633 4.632568 14,700 340 312 -960
2018-12-06 05:20:27 GMT 46.938904 4.640144 14,850 340 312 -896
2018-12-06 05:20:16 GMT 46.924980 4.647780 15,000 340 312 -960
2018-12-06 05:20:06 GMT 46.911480 4.655104 15,150 340 313 -1024
2018-12-06 05:19:56 GMT 46.897751 4.662598 15,350 340 314 -1088
2018-12-06 05:19:48 GMT 46.886261 4.668915 15,500 340 315 -960
2018-12-06 05:19:35 GMT 46.869690 4.678047 15,675 340 314 -896
2018-12-06 05:19:25 GMT 46.855545 4.685870 15,850 340 315 -960
2018-12-06 05:19:22 GMT 46.851425 4.688081 15,900 340 317 -1472
2018-12-06 05:19:17 GMT 46.844540 4.691917 16,000 340 317 -1472
2018-12-06 05:19:14 GMT 46.840397 4.694183 16,075 340 318 -1408
2018-12-06 05:19:07 GMT 46.830761 4.699471 16,300 340 319 -2048
2018-12-06 05:19:04 GMT 46.826618 4.701736 16,375 340 319 -2176
2018-12-06 05:18:56 GMT 46.815536 4.707779 16,675 340 318 -2304
2018-12-06 05:18:53 GMT 46.811672 4.709908 16,775 340 318 -2176
2018-12-06 05:18:47 GMT 46.802719 4.714810 17,050 340 318 -1920
2018-12-06 05:18:43 GMT 46.797615 4.717598 17,125 340 319 -1920
2018-12-06 05:18:36 GMT 46.788666 4.722513 17,725 340 319 -1920
2018-12-06 05:18:33 GMT 46.784069 4.725014 17,450 340 320 -2048
2018-12-06 05:18:26 GMT 46.774521 4.730217 17,725 340 321 -1984
2018-12-06 05:18:22 GMT 46.769257 4.733031 17,800 340 321 -1792
2018-12-06 05:18:15 GMT 46.758087 4.739127 18,075 340 321 -2112
2018-12-06 05:18:12 GMT 46.755157 4.740669 18,150 340 321 -2176
2018-12-06 05:18:06 GMT 46.745384 4.746025 18,400 340 321 -2176
2018-12-06 05:18:01 GMT 46.740124 4.748909 18,525 340 321 -2112
2018-12-06 05:17:56 GMT 46.731743 4.753510 18,750 340 321 -1920
2018-12-06 05:17:51 GMT 46.726089 4.756611 18,875 340 322 -1984
2018-12-06 05:17:44 GMT 46.715031 4.762642 19,075 340 323 -2304
2018-12-06 05:17:41 GMT 46.711304 4.764717 19,275 340 322 -2432
2018-12-06 05:17:34 GMT 46.702740 4.769371 19,500 340 322 -2240
2018-12-06 05:17:31 GMT 46.697296 4.772287 19,650 340 323 -2048
2018-12-06 05:17:24 GMT 46.688599 4.777043 19,875 340 323 -2048
2018-12-06 05:17:20 GMT 46.682816 4.780151 19,975 340 323 -2048
2018-12-06 05:17:13 GMT 46.670246 4.787086 20,325 340 324 -2048
2018-12-06 05:17:10 GMT 46.668804 4.787842 20,350 340 324 -2048
2018-12-06 05:17:03 GMT 46.657585 4.793953 20,675 340 325 -2048
2018-12-06 05:17:00 GMT 46.653908 4.795944 20,675 340 325 -2048
2018-12-06 05:16:55 GMT 46.646393 4.800021 21,000 340 326 -1856
2018-12-06 05:16:52 GMT 46.641861 4.802499 21,025 340 325 -1984
2018-12-06 05:16:49 GMT 46.639069 4.803973 21,100 340 326 -1920
2018-12-06 05:16:44 GMT 46.630493 4.808647 21,275 340 327 -1728
2018-12-06 05:16:41 GMT 46.623184 4.812615 21,425 340 328 -1728
2018-12-06 05:16:34 GMT 46.616806 4.816063 21,550 340 330 -1472
2018-12-06 05:16:31 GMT 46.612755 4.818260 21,625 340 333 -1088
2018-12-06 05:16:28 GMT 46.606377 4.821762 21,700 340 335 -896
2018-12-06 05:16:24 GMT 46.602173 4.824003 21,750 340 337 -896
2018-12-06 05:16:20 GMT 46.596863 4.826883 21,800 340 339 -768
2018-12-06 05:16:17 GMT 46.590595 4.830276 21,850 340 340 -640
2018-12-06 05:16:14 GMT 46.587620 4.831856 21,900 340 341 -640
2018-12-06 05:16:11 GMT 46.579239 4.836396 21,925 340 343 -448
2018-12-06 05:16:04 GMT 46.566971 4.843028 21,975 340 344 0
2018-12-06 05:16:01 GMT 46.566971 4.843028 21,975 340 344 0
2018-12-06 05:15:58 GMT 46.563782 4.844765 22,000 340 344 0
2018-12-06 05:15:53 GMT 46.556103 4.848953 22,000 340 344 0
2018-12-06 05:15:50 GMT 46.552750 4.850739 22,000 340 345 0
2018-12-06 05:15:47 GMT 46.548431 4.853143 21,975 340 345 0
2018-12-06 05:15:43 GMT 46.541885 4.856694 21,975 340 345 0
2018-12-06 05:15:39 GMT 46.535248 4.860244 21,975 340 345 0
2018-12-06 05:15:36 GMT 46.532272 4.861852 21,975 340 346 -64
2018-12-06 05:15:33 GMT 46.526871 4.864800 21,975 340 347 0
2018-12-06 05:15:29 GMT 46.520828 4.868082 22,000 340 347 0
2018-12-06 05:15:26 GMT 46.517136 4.870033 22,000 340 346 0
2018-12-06 05:15:23 GMT 46.508835 4.874513 22,000 340 346 0
2018-12-06 05:15:20 GMT 46.504898 4.876657 22,000 340 346 0
2018-12-06 05:15:16 GMT 46.502056 4.878136 22,000 340 346 0
2018-12-06 05:15:12 GMT 46.490929 4.884178 22,000 340 346 0
2018-12-06 05:15:09 GMT 46.490929 4.884178 22,000 340 346 0
2018-12-06 05:15:06 GMT 46.485809 4.886856 22,000 340 346 0
2018-12-06 05:15:02 GMT 46.481014 4.889465 22,000 340 346 0
2018-12-06 05:14:59 GMT 46.474449 4.893036 22,000 340 346 0
2018-12-06 05:14:55 GMT 46.470108 4.895347 22,000 340 346 0
2018-12-06 05:14:51 GMT 46.464386 4.898429 22,000 340 347 0
2018-12-06 05:14:48 GMT 46.459579 4.901041 22,000 340 347 0
2018-12-06 05:14:45 GMT 46.455223 4.903404 22,000 340 347 0
2018-12-06 05:14:42 GMT 46.451035 4.905670 22,000 340 347 0
2018-12-06 05:14:39 GMT 46.445076 4.908897 22,000 340 346 0
2018-12-06 05:14:32 GMT 46.435436 4.914116 22,000 340 346 0
2018-12-06 05:14:29 GMT 46.429871 4.917119 22,000 340 346 0
2018-12-06 05:14:25 GMT 46.424423 4.919999 22,000 340 346 0
2018-12-06 05:14:22 GMT 46.419891 4.922478 22,000 340 346 0
2018-12-06 05:14:19 GMT 46.413620 4.925827 22,000 340 346 0
2018-12-06 05:14:15 GMT 46.407459 4.929153 21,975 340 346 0
2018-12-06 05:14:12 GMT 46.404556 4.930718 21,975 340 347 0
2018-12-06 05:14:08 GMT 46.398605 4.933933 21,975 340 347 0
2018-12-06 05:14:04 GMT 46.390732 4.938154 21,975 340 348 0
2018-12-06 05:14:01 GMT 46.389267 4.938957 21,975 340 348 0
2018-12-06 05:13:58 GMT 46.383347 4.942131 21,975 340 348 0
2018-12-06 05:13:53 GMT 46.377014 4.945496 21,975 340 348 0
2018-12-06 05:13:50 GMT 46.368988 4.949743 22,000 340 347 0
2018-12-06 05:13:47 GMT 46.366074 4.951332 22,000 340 347 0
2018-12-06 05:13:41 GMT 46.356628 4.956375 22,000 340 346 -64
2018-12-06 05:13:37 GMT 46.351971 4.958885 22,000 340 346 -64
2018-12-06 05:13:33 GMT 46.345871 4.962136 22,000 340 345 0
2018-12-06 05:13:30 GMT 46.339874 4.965351 22,000 340 345 0
2018-12-06 05:13:27 GMT 46.337585 4.966576 22,000 340 345 0
2018-12-06 05:13:21 GMT 46.328430 4.971514 22,000 340 346 0
2018-12-06 05:13:16 GMT 46.321712 4.975090 22,000 340 346 0
2018-12-06 05:13:11 GMT 46.313240 4.979622 21,975 340 348 64
2018-12-06 05:13:07 GMT 46.306732 4.982970 21,975 341 350 192
2018-12-06 05:13:02 GMT 46.298996 4.986654 21,950 344 352 512
2018-12-06 05:12:58 GMT 46.292896 4.989166 21,875 348 354 960
2018-12-06 05:12:55 GMT 46.286728 4.991276 21,850 348 355 960
2018-12-06 05:12:51 GMT 46.281769 4.992805 21,775 350 356 1344
2018-12-06 05:12:46 GMT 46.272598 4.995003 21,675 353 357 1472
2018-12-06 05:12:41 GMT 46.265259 4.996368 21,550 353 357 1472
2018-12-06 05:12:37 GMT 46.259239 4.997475 21,450 353 357 1472
2018-12-06 05:12:31 GMT 46.249191 4.999315 21,325 353 358 1408
2018-12-06 05:12:28 GMT 46.242599 5.000521 21,200 353 359 1408
2018-12-06 05:12:24 GMT 46.238197 5.001389 21,125 353 360 1408
2018-12-06 05:12:20 GMT 46.231613 5.002531 20,925 353 361 1408
2018-12-06 05:12:17 GMT 46.226883 5.003448 20,925 353 361 1408
2018-12-06 05:12:14 GMT 46.221207 5.004478 20,875 353 362 1472
2018-12-06 05:12:10 GMT 46.214222 5.005714 20,725 353 361 1408
2018-12-06 05:12:06 GMT 46.207935 5.006882 20,700 353 360 1408
2018-12-06 05:12:03 GMT 46.203140 5.007756 20,625 353 360 1408
2018-12-06 05:11:59 GMT 46.196671 5.008942 20,525 353 360 1408
2018-12-06 05:11:56 GMT 46.190552 5.010034 20,425 353 360 1472
2018-12-06 05:11:53 GMT 46.187256 5.010636 20,375 353 360 1600
2018-12-06 05:11:49 GMT 46.179657 5.012043 20,250 353 359 1856
2018-12-06 05:11:46 GMT 46.174347 5.012981 20,175 353 358 2112
2018-12-06 05:11:43 GMT 46.170231 5.013748 20,050 353 358 2240
2018-12-06 05:11:39 GMT 46.164040 5.014847 19,850 353 357 2688
2018-12-06 05:11:36 GMT 46.157913 5.015929 19,725 353 357 2880
2018-12-06 05:11:33 GMT 46.153519 5.016769 19,600 353 358 3136
2018-12-06 05:11:29 GMT 46.147232 5.017868 19,350 353 359 3264
2018-12-06 05:11:26 GMT 46.141068 5.018943 19,050 353 360 3392
2018-12-06 05:11:23 GMT 46.136993 5.019722 19,050 353 360 3392
2018-12-06 05:11:18 GMT 46.129166 5.021087 18,775 353 363 3136
2018-12-06 05:11:15 GMT 46.122162 5.022360 18,550 353 364 2880
2018-12-06 05:11:12 GMT 46.118603 5.023018 18,450 353 364 2560
2018-12-06 05:11:09 GMT 46.113575 5.023911 17,900 353 364 2432
2018-12-06 05:11:06 GMT 46.107422 5.025039 18,175 353 364 2432
2018-12-06 05:11:03 GMT 46.101425 5.026111 18,025 353 365 2368
2018-12-06 05:10:58 GMT 46.096210 5.027069 17,850 353 364 1920
2018-12-06 05:10:55 GMT 46.090714 5.028121 17,775 353 364 1920
2018-12-06 05:10:52 GMT 46.084671 5.029193 17,650 353 362 2304
2018-12-06 05:10:49 GMT 46.079872 5.030090 17,550 353 361 2496
2018-12-06 05:10:45 GMT 46.073589 5.031258 17,375 353 361 2688
2018-12-06 05:10:41 GMT 46.067257 5.032425 17,200 353 361 2880
2018-12-06 05:10:38 GMT 46.062973 5.033180 17,075 353 362 2880
2018-12-06 05:10:35 GMT 46.055897 5.034485 16,875 353 362 2752
2018-12-06 05:10:30 GMT 46.046814 5.036160 16,600 353 363 3264
2018-12-06 05:10:27 GMT 46.043472 5.036763 16,375 353 364 3008
2018-12-06 05:10:24 GMT 46.038437 5.037700 16,375 353 364 3008
2018-12-06 05:10:21 GMT 46.033401 5.038571 16,075 353 364 2496
2018-12-06 05:10:18 GMT 46.026569 5.039841 16,000 353 364 2368
2018-12-06 05:10:14 GMT 46.021408 5.040782 15,925 353 364 2240
2018-12-06 05:10:11 GMT 46.016560 5.041626 15,775 353 363 2176
2018-12-06 05:10:08 GMT 46.012344 5.042390 15,625 353 361 2240
2018-12-06 05:10:05 GMT 46.005573 5.043617 15,525 354 361 2496
2018-12-06 05:10:01 GMT 45.998962 5.044785 15,350 353 360 2880
2018-12-06 05:09:57 GMT 45.993484 5.045739 15,175 353 360 2816
2018-12-06 05:09:53 GMT 45.985794 5.047079 14,975 353 360 2432
2018-12-06 05:09:50 GMT 45.980667 5.048012 14,850 353 359 2176
2018-12-06 05:09:47 GMT 45.978062 5.048492 14,800 353 359 1984
2018-12-06 05:09:44 GMT 45.971970 5.049558 14,650 353 357 2112
2018-12-06 05:09:40 GMT 45.966564 5.050552 14,550 353 356 2304
2018-12-06 05:09:37 GMT 45.961487 5.051500 14,425 353 355 2368
2018-12-06 05:09:34 GMT 45.955391 5.052612 14,275 353 354 2048
2018-12-06 05:09:31 GMT 45.950596 5.053574 14,150 352 352 1984
2018-12-06 05:09:27 GMT 45.944870 5.054783 14,025 352 350 2048
2018-12-06 05:09:24 GMT 45.937271 5.056525 13,900 351 348 2176
2018-12-06 05:09:20 GMT 45.931549 5.057998 13,750 347 345 2240
2018-12-06 05:09:17 GMT 45.927521 5.059338 13,650 345 344 2304
2018-12-06 05:09:12 GMT 45.918182 5.063759 13,400 337 340 2560
2018-12-06 05:09:07 GMT 45.914108 5.066238 13,350 336 338 2624
2018-12-06 05:09:04 GMT 45.909492 5.069504 13,100 331 336 3136
2018-12-06 05:09:01 GMT 45.904881 5.073143 12,950 330 336 3072
2018-12-06 05:08:57 GMT 45.900238 5.077157 12,775 330 336 2816
2018-12-06 05:08:53 GMT 45.894608 5.081914 12,575 330 335 2560
2018-12-06 05:08:50 GMT 45.891010 5.085022 12,475 330 334 2368
2018-12-06 05:08:47 GMT 45.886494 5.088867 12,250 330 332 2560
2018-12-06 05:08:44 GMT 45.878174 5.095982 12,150 330 331 2560
2018-12-06 05:08:41 GMT 45.878174 5.095982 12,075 330 330 2304
2018-12-06 05:08:36 GMT 45.873089 5.100334 11,925 330 329 2240
2018-12-06 05:08:33 GMT 45.867828 5.104866 11,775 330 326 1920
2018-12-06 05:08:30 GMT 45.865314 5.107063 11,700 330 325 1856
2018-12-06 05:08:26 GMT 45.857437 5.113801 11,525 330 320 1344
2018-12-06 05:08:23 GMT 45.856281 5.114754 11,475 329 317 1152
2018-12-06 05:08:20 GMT 45.851578 5.118825 11,425 330 314 1152
2018-12-06 05:08:16 GMT 45.847202 5.122581 11,350 329 310 1088
2018-12-06 05:08:13 GMT 45.843384 5.125859 11,275 330 306 1088
2018-12-06 05:08:10 GMT 45.839035 5.129610 11,250 329 302 1088
2018-12-06 05:08:06 GMT 45.834682 5.133362 11,175 330 297 1088
2018-12-06 05:08:02 GMT 45.830063 5.137314 11,100 330 291 1088
2018-12-06 05:07:59 GMT 45.826488 5.140366 11,025 330 287 1216
2018-12-06 05:07:56 GMT 45.822857 5.143456 10,950 330 282 1600
2018-12-06 05:07:53 GMT 45.818340 5.147301 10,850 330 279 1984
2018-12-06 05:07:49 GMT 45.815369 5.149841 10,775 330 277 2304
2018-12-06 05:07:43 GMT 45.803970 5.159555 10,450 330 272 3008
2018-12-06 05:07:40 GMT 45.803970 5.159555 10,300 330 271 3584
2018-12-06 05:07:35 GMT 45.800419 5.162613 10,100 330 271 3776
2018-12-06 05:07:32 GMT 45.796322 5.166115 9,850 329 272 3840
2018-12-06 05:07:29 GMT 45.793110 5.168930 9,650 329 273 3712
2018-12-06 05:07:25 GMT 45.789734 5.171881 9,475 329 273 3456
2018-12-06 05:07:21 GMT 45.785019 5.175967 9,325 329 273 3072
2018-12-06 05:07:18 GMT 45.781769 5.178714 9,100 330 272 2432
2018-12-06 05:07:15 GMT 45.778473 5.181394 8,975 334 272 1984
2018-12-06 05:07:11 GMT 45.774071 5.184448 8,700 352 265 1024
2018-12-06 05:07:08 GMT 45.770065 5.186440 8,775 345 269 1536
2018-12-06 05:07:05 GMT 45.766571 5.187557 8,700 356 264 960
2018-12-06 05:07:02 GMT 45.762177 5.188427 8,625 359 262 960
2018-12-06 05:06:59 GMT 45.758430 5.188568 8,575 2 258 1024
2018-12-06 05:06:55 GMT 45.754486 5.188293 8,525 6 254 1216
2018-12-06 05:06:51 GMT 45.749958 5.187469 8,425 11 250 1856
2018-12-06 05:06:48 GMT 45.745972 5.186284 8,325 12 246 2496
2018-12-06 05:06:45 GMT 45.743206 5.185410 8,125 13 244 3136
2018-12-06 05:06:42 GMT 45.738419 5.183805 8,000 13 244 3264
2018-12-06 05:06:38 GMT 45.735012 5.182732 7,825 13 243 3456
2018-12-06 05:06:35 GMT 45.731987 5.181702 7,675 13 243 3584
2018-12-06 05:06:31 GMT 45.727432 5.180255 7,425 13 244 3392
2018-12-06 05:06:25 GMT 45.720955 5.178062 7,100 13 243 2752
2018-12-06 05:06:21 GMT 45.716309 5.176570 6,925 12 241 2496
2018-12-06 05:06:18 GMT 45.712601 5.175364 6,775 12 238 2112
2018-12-06 05:06:12 GMT 45.706558 5.173422 6,575 12 233 2176
2018-12-06 05:06:07 GMT 45.701031 5.171608 6,375 12 228 2624
2018-12-06 05:06:04 GMT 45.698982 5.170990 6,275 12 227 2816
2018-12-06 05:06:01 GMT 45.694466 5.169479 6,050 12 225 3328
2018-12-06 05:05:54 GMT 45.688786 5.167694 5,725 12 226 4096
2018-12-06 05:05:50 GMT 45.683434 5.165977 5,350 13 228 4544
2018-12-06 05:05:44 GMT 45.678406 5.164177 5,000 15 234 3648
2018-12-06 05:05:41 GMT 45.674835 5.162703 4,150 26 239 2240
2018-12-06 05:05:36 GMT 45.669800 5.159622 4,575 31 239 1664
2018-12-06 05:05:29 GMT 45.663929 5.153343 4,450 46 232 128
2018-12-06 05:05:25 GMT 45.661320 5.149223 4,450 54 227 960
2018-12-06 05:05:20 GMT 45.658340 5.142769 4,375 64 223 1024
2018-12-06 05:05:16 GMT 45.656387 5.136242 4,300 75 219 896
2018-12-06 05:05:10 GMT 45.655197 5.128070 4,200 88 212 896
2018-12-06 05:05:05 GMT 45.655315 5.119904 4,100 98 206 960
2018-12-06 05:05:00 GMT 45.655930 5.115543 4,050 105 202 832
2018-12-06 05:04:56 GMT 45.657578 5.109379 3,975 120 193 960
2018-12-06 05:04:53 GMT 45.659134 5.105762 3,925 128 188 896
2018-12-06 05:04:50 GMT 45.660252 5.103767 3,900 133 184 1088
2018-12-06 05:04:43 GMT 45.665405 5.097991 3,750 155 170 1344
2018-12-06 05:04:39 GMT 45.667187 5.096832 3,700 163 165 1664
2018-12-06 05:04:34 GMT 45.670944 5.095446 3,550 173 160 2048
2018-12-06 05:04:30 GMT 45.674332 5.094910 3,375 174 159 2048
2018-12-06 05:04:25 GMT 45.678780 5.094292 3,175 174 157 1984
2018-12-06 05:04:21 GMT 45.681931 5.093905 3,025 175 156 1984
2018-12-06 05:04:18 GMT 45.682617 5.093838 3,000 175 156 1984
2018-12-06 05:04:14 GMT 45.686039 5.093468 2,850 175 154 1920
2018-12-06 05:04:08 GMT 45.689621 5.093101 2,700 175 152 1792
2018-12-06 05:04:04 GMT 45.693348 5.092644 2,525 174 150 1600
2018-12-06 05:03:58 GMT 45.696888 5.092163 2,350 174 146 2560
2018-12-06 05:03:53 GMT 45.700058 5.091694 2,150 174 148 2752
2018-12-06 05:03:49 GMT 45.703125 5.091339 1,925 174 148 2816
2018-12-06 05:03:43 GMT 45.707062 5.090823 1,650 174 148 2880
2018-12-06 05:03:39 GMT 45.709873 5.090446 1,450 174 148 2944
2018-12-06 05:03:33 GMT 45.714020 5.089885 1,150 174 148 2944
2018-12-06 05:03:28 GMT 45.717136 5.089485 925 175 150 2816
2018-12-06 05:03:23 GMT 45.721046 5.089005 700 175 152 2176
2018-12-06 05:03:17 GMT 45.724812 5.088579 0 174 150
2018-12-06 05:03:07 GMT 45.730778 5.087872 0 174 110
2018-12-06 05:02:58 GMT 45.734550 5.087407 0 174 60
2018-12-06 05:02:48 GMT 45.736279 5.087206 0 174 5
2018-12-06 05:02:38 GMT 45.736301 5.087189 0 174 0
2018-12-06 05:02:27 GMT 45.736317 5.087202 0 174 0
2018-12-06 05:02:17 GMT 45.736393 5.087189 0 168 7
2018-12-06 05:02:08 GMT 45.736668 5.087055 0 106 10
2018-12-06 05:02:00 GMT 45.736782 5.086498 0 104 16
2018-12-06 05:01:57 GMT 45.736839 5.086241 0 106 17
2018-12-06 05:01:47 GMT 45.737026 5.085245 0 104 15
2018-12-06 05:01:40 GMT 45.737148 5.084593 0 104 14
2018-12-06 05:01:36 GMT 45.737194 5.084342 0 106 14
2018-12-06 05:01:25 GMT 45.737263 5.083454 0 75 12
2018-12-06 05:01:17 GMT 45.737034 5.082868 0 39 14
2018-12-06 05:01:06 GMT 45.736458 5.082550 0 357 18
2018-12-06 05:00:56 GMT 45.735603 5.082651 0 354 21
2018-12-06 05:00:46 GMT 45.734676 5.082768 0 354 23
2018-12-06 05:00:35 GMT 45.733463 5.082911 0 354 32
2018-12-06 05:00:25 GMT 45.731976 5.083086 0 354 31
2018-12-06 05:00:15 GMT 45.730671 5.083254 0 357 29

Making use of Plane Finder data

You are free to use the raw flight data, aircraft information and images provided in this report for your own purposes provided the data is correctly attributed to Plane Finder. We ask that you please credit Plane Finder and link to planefinder.net in close proximity to the content.

Optionally one of the following logos (no smaller then 150x24px) can be used and must link to planefinder.net

Embedding the Plane Finder map

You are welcome to embed the Plane Finder playback map on your website to offer visitors a more interactive experience. We suggest using the following HTML code:

<iframe src="//planefinder.net/data/report/AF7651-F-GKXL-7700-squawk-2018-12-06/map" width="800" height="600" seamless="seamless"></iframe>

Where our data comes from

Plane Finder has a global network of data feeds and antenna radars that receive data broadcast directly from aircraft. The primary technologies used are ADS-B and MLAT. We also show feeds from the FAA and a FLARM glider feed.

Click here to find out more about the Plane Finder network.

How we collect our data